Time;durP1;ratioP1;P1;durP2;ratioP2;P2;SDS_P1;SDS_P2;PMS_P1;PMS_P2;Temp;Humidity;BMP_temperature;BMP_pressure;BME280_temperature;BME280_humidity;BME280_pressure;Samples;Min_cycle;Max_cycle;Signal;HPM_P1;HPM_P2
2023/09/18 00:02:14;;;;;;;14.85;8.43;;;21.40;96.70;;;;;;6338299;22;20405;-73
2023/09/18 00:04:39;;;;;;;9.15;8.25;;;21.40;96.80;;;;;;6338461;22;20026;-73
2023/09/18 00:07:05;;;;;;;16.45;8.55;;;21.40;96.80;;;;;;6338069;22;20030;-73
2023/09/18 00:09:31;;;;;;;14.43;8.30;;;21.40;96.80;;;;;;6338275;22;19994;-73
2023/09/18 00:11:56;;;;;;;13.00;7.90;;;21.40;96.80;;;;;;6338341;22;20044;-73
2023/09/18 00:14:23;;;;;;;9.98;7.78;;;21.40;96.80;;;;;;6338446;22;20002;-73
2023/09/18 00:16:49;;;;;;;12.88;7.63;;;21.40;96.80;;;;;;6338576;22;20073;-73
2023/09/18 00:19:14;;;;;;;8.70;7.50;;;21.40;97.00;;;;;;6310808;22;20002;-73
2023/09/18 00:21:40;;;;;;;9.27;7.45;;;21.40;96.70;;;;;;6338157;22;20025;-73
2023/09/18 00:24:08;;;;;;;10.88;8.32;;;21.40;96.70;;;;;;6338155;22;19995;-73
2023/09/18 00:26:34;;;;;;;18.13;9.00;;;21.40;96.70;;;;;;6338096;22;20077;-73
2023/09/18 00:28:59;;;;;;;12.90;7.82;;;21.40;96.60;;;;;;6338239;22;20022;-73
2023/09/18 00:31:25;;;;;;;10.50;7.45;;;21.40;96.60;;;;;;6338073;22;19998;-73
2023/09/18 00:33:51;;;;;;;10.60;8.05;;;21.40;96.60;;;;;;6337958;22;19995;-73
2023/09/18 00:36:16;;;;;;;10.55;7.78;;;21.40;96.50;;;;;;6338032;22;20060;-73
2023/09/18 00:38:43;;;;;;;11.95;7.78;;;21.40;96.60;;;;;;6310449;22;20425;-73
2023/09/18 00:41:09;;;;;;;16.30;8.57;;;21.40;96.60;;;;;;6338112;22;19999;-73
2023/09/18 00:43:35;;;;;;;11.38;7.72;;;21.40;96.60;;;;;;6338055;22;20068;-73
2023/09/18 00:46:01;;;;;;;12.77;7.88;;;21.50;96.60;;;;;;6338159;22;20070;-73
2023/09/18 00:48:28;;;;;;;8.73;7.57;;;21.40;96.70;;;;;;6338061;22;20006;-73
2023/09/18 00:50:54;;;;;;;11.32;7.72;;;21.40;96.70;;;;;;6338103;22;20003;-73
2023/09/18 00:53:23;;;;;;;11.88;7.82;;;21.40;96.70;;;;;;6337642;22;20005;-73
2023/09/18 00:55:53;;;;;;;9.82;6.95;;;21.40;96.70;;;;;;6338147;22;20033;-73
2023/09/18 00:58:19;;;;;;;10.48;7.60;;;21.50;96.80;;;;;;6336094;22;20021;-73
2023/09/18 01:00:45;;;;;;;16.17;7.80;;;21.40;96.70;;;;;;6334701;22;19999;-73
2023/09/18 01:03:11;;;;;;;11.18;8.23;;;21.40;96.70;;;;;;6334728;22;20059;-74
2023/09/18 01:05:36;;;;;;;8.82;7.93;;;21.50;96.80;;;;;;6336923;22;20408;-73
2023/09/18 01:08:04;;;;;;;15.07;7.78;;;21.50;96.80;;;;;;6337653;22;19995;-73
2023/09/18 01:10:36;;;;;;;9.75;7.55;;;21.50;96.80;;;;;;6338123;22;20425;-73
2023/09/18 01:13:13;;;;;;;8.73;6.95;;;21.50;96.80;;;;;;6339751;22;20356;-73
2023/09/18 01:15:57;;;;;;;11.80;7.80;;;21.50;96.80;;;;;;6339788;22;20006;-73
2023/09/18 01:18:23;;;;;;;12.88;7.18;;;21.50;96.80;;;;;;6338845;22;20018;-73
2023/09/18 01:20:49;;;;;;;10.32;7.10;;;21.50;96.80;;;;;;6339167;22;19999;-73
2023/09/18 01:23:14;;;;;;;9.80;7.05;;;21.50;96.80;;;;;;6338978;22;20064;-73
2023/09/18 01:25:40;;;;;;;11.90;7.25;;;21.50;96.80;;;;;;6339214;22;19995;-73
2023/09/18 01:28:06;;;;;;;8.65;6.68;;;21.50;96.80;;;;;;6311662;22;20003;-73
2023/09/18 01:30:34;;;;;;;7.00;6.28;;;21.50;96.70;;;;;;6339662;22;20078;-73
2023/09/18 01:33:02;;;;;;;9.57;6.72;;;21.50;96.60;;;;;;6339640;22;20005;-73
2023/09/18 01:35:29;;;;;;;17.42;7.00;;;21.50;96.60;;;;;;6339392;22;20064;-73
2023/09/18 01:38:00;;;;;;;10.25;7.40;;;21.50;96.50;;;;;;6339482;22;20014;-74
2023/09/18 01:40:26;;;;;;;10.75;7.38;;;21.50;96.50;;;;;;6312087;22;19999;-74
2023/09/18 01:42:53;;;;;;;9.18;7.97;;;21.50;96.40;;;;;;6339431;22;19998;-73
2023/09/18 01:45:19;;;;;;;12.48;7.88;;;21.50;96.40;;;;;;6339643;22;20075;-74
2023/09/18 01:47:46;;;;;;;12.70;7.15;;;21.50;96.40;;;;;;6339582;22;20045;-74
2023/09/18 01:50:13;;;;;;;11.52;7.70;;;21.50;96.50;;;;;;6339221;22;20044;-74
2023/09/18 01:52:38;;;;;;;10.27;8.10;;;21.50;96.50;;;;;;6339110;22;19998;-74
2023/09/18 01:55:05;;;;;;;11.35;7.47;;;21.50;96.50;;;;;;6339217;22;20002;-74
2023/09/18 01:57:30;;;;;;;14.63;7.43;;;21.50;96.50;;;;;;6339015;22;20413;-73
2023/09/18 01:59:56;;;;;;;13.23;7.40;;;21.50;96.40;;;;;;6311767;22;19995;-74
2023/09/18 02:02:22;;;;;;;10.38;7.22;;;21.40;96.40;;;;;;6339421;22;20006;-73
2023/09/18 02:04:47;;;;;;;12.73;7.38;;;21.40;96.40;;;;;;6338936;22;20045;-73
2023/09/18 02:07:13;;;;;;;12.30;7.78;;;21.30;96.50;;;;;;6339139;22;20010;-73
2023/09/18 02:09:39;;;;;;;16.80;7.32;;;21.30;96.60;;;;;;6339377;22;20487;-73
2023/09/18 02:12:05;;;;;;;16.85;7.82;;;21.30;96.60;;;;;;6339083;22;20011;-73
2023/09/18 02:14:31;;;;;;;14.73;7.68;;;21.30;96.70;;;;;;6311612;22;20333;-74
2023/09/18 02:16:57;;;;;;;14.20;7.80;;;21.30;96.80;;;;;;6339270;22;20006;-73
2023/09/18 02:19:23;;;;;;;12.88;7.57;;;21.30;96.80;;;;;;6339251;22;19999;-73
2023/09/18 02:21:49;;;;;;;12.23;7.32;;;21.30;96.80;;;;;;6338827;22;20003;-74
2023/09/18 02:24:15;;;;;;;11.98;7.55;;;21.30;96.80;;;;;;6339028;22;20048;-73
2023/09/18 02:26:41;;;;;;;10.07;6.97;;;21.30;96.80;;;;;;6339196;22;20436;-74
2023/09/18 02:29:13;;;;;;;11.40;7.70;;;21.20;96.80;;;;;;6311609;22;20003;-73
2023/09/18 02:31:39;;;;;;;9.93;7.20;;;21.30;96.90;;;;;;6339214;22;20038;-73
2023/09/18 02:34:07;;;;;;;9.68;7.03;;;21.30;97.00;;;;;;6338956;22;20027;-73
2023/09/18 02:36:33;;;;;;;8.57;7.68;;;21.30;96.90;;;;;;6339065;22;20003;-73
2023/09/18 02:38:58;;;;;;;8.75;7.00;;;21.30;96.90;;;;;;6339010;22;20851;-73
2023/09/18 02:41:24;;;;;;;10.73;7.38;;;21.30;96.90;;;;;;6339491;22;20417;-74
2023/09/18 02:43:50;;;;;;;14.07;7.60;;;21.30;96.90;;;;;;6338496;22;20074;-73
2023/09/18 02:46:15;;;;;;;8.70;7.45;;;21.30;97.10;;;;;;6311345;22;20003;-73
2023/09/18 02:48:41;;;;;;;13.10;6.95;;;21.30;96.90;;;;;;6339208;22;20006;-73
2023/09/18 02:51:08;;;;;;;9.32;7.50;;;21.20;96.90;;;;;;6339034;22;20003;-74
2023/09/18 02:53:34;;;;;;;10.95;7.75;;;21.20;96.90;;;;;;6338724;22;20010;-73
2023/09/18 02:56:00;;;;;;;9.85;7.50;;;21.30;96.90;;;;;;6338895;22;20321;-73
2023/09/18 02:58:28;;;;;;;9.95;7.80;;;21.20;96.90;;;;;;6311024;22;20011;-73
2023/09/18 03:00:56;;;;;;;10.75;7.43;;;21.30;96.90;;;;;;6339361;22;20006;-73
2023/09/18 03:03:22;;;;;;;11.93;8.40;;;21.30;96.90;;;;;;6339102;22;20041;-73
2023/09/18 03:05:47;;;;;;;8.95;7.43;;;21.30;96.90;;;;;;6339095;22;20002;-74
2023/09/18 03:08:15;;;;;;;7.88;7.00;;;21.30;96.90;;;;;;6338483;22;19998;-74
2023/09/18 03:10:42;;;;;;;10.60;7.10;;;21.20;96.90;;;;;;6338926;22;20306;-73
2023/09/18 03:13:15;;;;;;;15.15;8.23;;;21.20;96.80;;;;;;6338910;22;20007;-73
2023/09/18 03:15:45;;;;;;;11.15;8.02;;;21.20;96.80;;;;;;6339163;22;20327;-73
2023/09/18 03:18:11;;;;;;;10.82;7.50;;;21.20;96.90;;;;;;6338646;22;20451;-74
2023/09/18 03:20:37;;;;;;;13.35;7.63;;;21.20;96.80;;;;;;6339081;22;19995;-74
2023/09/18 03:23:03;;;;;;;14.30;8.05;;;21.20;96.80;;;;;;6338535;22;20006;-73
2023/09/18 03:25:29;;;;;;;11.38;7.35;;;21.20;96.80;;;;;;6338683;22;20074;-74
2023/09/18 03:27:57;;;;;;;12.00;7.75;;;21.20;96.70;;;;;;6338531;22;20329;-74
2023/09/18 03:30:24;;;;;;;13.00;7.20;;;21.10;96.70;;;;;;6338588;22;19999;-73
2023/09/18 03:32:50;;;;;;;8.65;6.85;;;21.10;96.70;;;;;;6338671;22;20447;-74
2023/09/18 03:35:20;;;;;;;12.18;7.80;;;21.10;96.70;;;;;;6338058;22;19995;-73
2023/09/18 03:37:51;;;;;;;15.32;8.25;;;21.10;96.80;;;;;;6338571;22;20007;-73
2023/09/18 03:40:20;;;;;;;12.77;6.95;;;21.10;96.80;;;;;;6338188;22;20026;-74
2023/09/18 03:42:47;;;;;;;11.10;7.35;;;21.10;96.90;;;;;;6311015;22;20429;-74
2023/09/18 03:45:13;;;;;;;10.85;7.80;;;21.00;96.90;;;;;;6338968;22;20367;-74
2023/09/18 03:47:40;;;;;;;10.95;7.60;;;21.10;97.00;;;;;;6338756;22;20057;-74
2023/09/18 03:50:10;;;;;;;12.52;7.30;;;21.00;96.90;;;;;;6338291;22;20006;-73
2023/09/18 03:52:36;;;;;;;10.85;7.78;;;21.00;96.90;;;;;;6338456;22;20073;-74
2023/09/18 03:55:02;;;;;;;11.45;7.75;;;21.00;96.90;;;;;;6338346;22;20005;-73
2023/09/18 03:57:28;;;;;;;10.05;7.45;;;21.00;96.90;;;;;;6339349;22;20106;-74
2023/09/18 03:59:54;;;;;;;13.25;7.43;;;21.00;96.90;;;;;;6340788;22;20099;-73
2023/09/18 04:02:24;;;;;;;8.55;7.63;;;21.00;96.90;;;;;;6339305;22;20326;-73
2023/09/18 04:04:50;;;;;;;13.55;7.90;;;21.00;97.00;;;;;;6338257;22;19995;-73
2023/09/18 04:07:16;;;;;;;9.68;7.45;;;21.00;97.10;;;;;;6338161;22;20021;-73
2023/09/18 04:09:42;;;;;;;13.15;8.13;;;21.00;97.10;;;;;;6338335;22;20443;-73
2023/09/18 04:12:09;;;;;;;10.27;7.65;;;21.00;97.20;;;;;;6337942;22;20007;-74
2023/09/18 04:14:35;;;;;;;14.05;7.53;;;21.00;97.30;;;;;;6310532;22;20007;-73
2023/09/18 04:17:02;;;;;;;10.98;7.45;;;21.00;97.30;;;;;;6338498;22;20144;-74
2023/09/18 04:19:28;;;;;;;10.15;8.05;;;21.00;97.30;;;;;;6338081;22;20014;-74
2023/09/18 04:21:53;;;;;;;10.10;7.35;;;21.10;97.20;;;;;;6338324;22;20065;-74
2023/09/18 04:24:19;;;;;;;9.98;7.53;;;21.10;97.10;;;;;;6338282;22;20393;-74
2023/09/18 04:26:45;;;;;;;8.73;7.82;;;21.10;97.10;;;;;;6338231;22;20077;-74
2023/09/18 04:29:10;;;;;;;7.90;7.15;;;21.10;97.10;;;;;;6337587;22;19994;-74
2023/09/18 04:31:37;;;;;;;9.93;7.47;;;21.10;97.10;;;;;;6310242;22;20007;-73
2023/09/18 04:34:03;;;;;;;8.18;7.00;;;21.10;97.10;;;;;;6337940;22;20440;-73
2023/09/18 04:36:30;;;;;;;9.95;8.00;;;21.10;97.10;;;;;;6337754;22;20086;-73
2023/09/18 04:38:55;;;;;;;9.50;6.97;;;21.10;97.00;;;;;;6337939;22;20007;-73
2023/09/18 04:41:21;;;;;;;12.40;7.68;;;21.10;96.90;;;;;;6337770;22;20025;-74
2023/09/18 04:43:47;;;;;;;10.13;7.40;;;21.10;96.70;;;;;;6337946;22;19999;-74
2023/09/18 04:46:13;;;;;;;9.30;7.65;;;21.10;96.70;;;;;;6338909;22;20019;-74
2023/09/18 04:48:39;;;;;;;10.85;7.85;;;21.10;96.60;;;;;;6340571;22;19998;-74
2023/09/18 04:51:04;;;;;;;11.23;7.32;;;21.00;96.60;;;;;;6340070;22;20400;-73
2023/09/18 04:53:32;;;;;;;16.45;8.10;;;21.00;96.70;;;;;;6339986;22;20025;-73
2023/09/18 04:55:57;;;;;;;9.75;6.70;;;21.00;96.70;;;;;;6340295;22;20426;-77
2023/09/18 04:58:23;;;;;;;10.70;7.25;;;21.00;96.70;;;;;;6339603;22;20006;-77
2023/09/18 05:00:59;;;;;;;15.90;7.75;;;20.90;96.70;;;;;;6339511;22;19999;-77
2023/09/18 05:03:29;;;;;;;11.05;7.50;;;20.90;96.70;;;;;;6339712;22;19999;-75
2023/09/18 05:05:54;;;;;;;8.77;7.70;;;20.90;96.80;;;;;;6339656;22;20433;-75
2023/09/18 05:08:20;;;;;;;12.63;8.10;;;20.90;96.90;;;;;;6339712;22;20028;-75
2023/09/18 05:10:47;;;;;;;11.80;7.60;;;20.90;96.90;;;;;;6340155;22;20003;-76
2023/09/18 05:13:13;;;;;;;7.90;7.10;;;20.90;96.90;;;;;;6339998;22;20006;-76
2023/09/18 05:15:39;;;;;;;12.52;7.82;;;20.90;97.00;;;;;;6339342;22;20056;-77
2023/09/18 05:18:05;;;;;;;12.43;7.15;;;20.90;97.00;;;;;;6338165;22;20014;-76
2023/09/18 05:20:31;;;;;;;10.07;7.82;;;20.90;97.10;;;;;;6339012;22;19999;-76
2023/09/18 05:22:58;;;;;;;15.68;8.80;;;21.00;97.20;;;;;;6339093;22;20006;-76
2023/09/18 05:25:26;;;;;;;12.65;7.47;;;21.00;97.30;;;;;;6339284;22;20018;-76
2023/09/18 05:27:56;;;;;;;14.38;7.78;;;21.00;97.30;;;;;;6339448;22;20002;-76
2023/09/18 05:30:30;;;;;;;12.88;7.93;;;21.00;97.30;;;;;;6339525;22;20003;-76
2023/09/18 05:32:57;;;;;;;11.52;7.80;;;21.00;97.30;;;;;;6340936;22;20002;-74
2023/09/18 05:35:23;;;;;;;12.98;7.28;;;21.00;97.30;;;;;;6340025;22;20060;-75
2023/09/18 05:37:51;;;;;;;11.93;6.80;;;21.10;97.30;;;;;;6339805;22;20437;-75
2023/09/18 05:40:17;;;;;;;10.55;7.90;;;21.10;97.30;;;;;;6340026;22;20002;-76
2023/09/18 05:42:44;;;;;;;12.73;7.72;;;21.00;97.30;;;;;;6312242;22;20006;-75
2023/09/18 05:45:17;;;;;;;9.95;7.68;;;21.10;97.30;;;;;;6311821;22;20336;-75
2023/09/18 05:47:42;;;;;;;12.38;7.18;;;21.10;97.30;;;;;;6339237;22;20182;-75
2023/09/18 05:50:10;;;;;;;10.90;7.85;;;21.10;97.30;;;;;;6339660;22;19995;-75
2023/09/18 05:52:36;;;;;;;14.30;7.93;;;21.10;97.30;;;;;;6338331;22;20007;-76
2023/09/18 05:55:05;;;;;;;19.80;9.15;;;21.10;97.20;;;;;;6338906;22;20021;-77
2023/09/18 05:57:30;;;;;;;22.95;8.93;;;21.10;97.20;;;;;;6338323;22;20013;-77
2023/09/18 05:59:57;;;;;;;20.55;10.35;;;21.10;97.10;;;;;;6339620;22;19999;-77
2023/09/18 06:02:24;;;;;;;20.65;9.50;;;21.10;97.00;;;;;;6339362;22;20013;-77
2023/09/18 06:04:59;;;;;;;26.63;9.05;;;21.10;96.90;;;;;;6339118;22;19999;-77
2023/09/18 06:07:26;;;;;;;18.52;8.77;;;21.10;96.90;;;;;;6339403;22;20009;-77
2023/09/18 06:09:52;;;;;;;17.52;8.13;;;21.10;96.90;;;;;;6311964;22;20003;-76
2023/09/18 06:12:18;;;;;;;16.85;7.75;;;21.00;96.90;;;;;;6338933;22;20011;-77
2023/09/18 06:14:46;;;;;;;24.02;8.73;;;21.00;97.00;;;;;;6338863;22;19999;-76
2023/09/18 06:17:12;;;;;;;22.13;8.48;;;21.10;97.10;;;;;;6339359;22;20044;-77
2023/09/18 06:19:38;;;;;;;19.25;9.02;;;21.10;97.20;;;;;;6339703;22;19994;-76
2023/09/18 06:22:04;;;;;;;24.58;8.55;;;21.10;97.30;;;;;;6339775;22;20419;-77
2023/09/18 06:24:30;;;;;;;23.73;8.75;;;21.10;97.30;;;;;;6337764;22;20044;-73
2023/09/18 06:26:56;;;;;;;34.10;8.95;;;21.10;97.20;;;;;;6337508;22;20532;-73
2023/09/18 06:29:21;;;;;;;30.95;9.05;;;21.10;97.30;;;;;;6338474;22;20009;-73
2023/09/18 06:31:47;;;;;;;18.95;8.43;;;21.10;97.30;;;;;;6337874;22;20009;-74
2023/09/18 06:34:13;;;;;;;20.38;8.07;;;21.10;97.40;;;;;;6338692;22;19999;-73
2023/09/18 06:36:39;;;;;;;18.60;8.32;;;21.20;97.50;;;;;;6338426;22;20005;-74
2023/09/18 06:39:05;;;;;;;15.55;8.73;;;21.20;97.60;;;;;;6339367;22;20331;-74
2023/09/18 06:41:30;;;;;;;13.88;8.77;;;21.20;97.60;;;;;;6339152;22;20369;-74
2023/09/18 06:43:57;;;;;;;19.42;10.07;;;21.30;97.60;;;;;;6338963;22;20003;-74
2023/09/18 06:46:22;;;;;;;11.88;8.38;;;21.30;97.70;;;;;;6339020;22;20409;-75
2023/09/18 06:48:50;;;;;;;14.68;9.02;;;21.30;97.80;;;;;;6338973;22;19998;-74
2023/09/18 06:51:16;;;;;;;11.18;8.80;;;21.30;97.80;;;;;;6339681;22;20116;-74
2023/09/18 06:53:44;;;;;;;12.65;8.93;;;21.30;97.80;;;;;;6338725;22;19995;-74
2023/09/18 06:56:09;;;;;;;12.60;8.95;;;21.40;97.80;;;;;;6338884;22;20002;-74
2023/09/18 06:58:35;;;;;;;14.48;8.32;;;21.40;97.80;;;;;;6339201;22;20015;-74
2023/09/18 07:01:01;;;;;;;13.23;8.93;;;21.50;97.70;;;;;;6338615;22;20001;-74
2023/09/18 07:03:27;;;;;;;15.43;8.80;;;21.50;97.60;;;;;;6338474;22;20010;-73
2023/09/18 07:05:53;;;;;;;18.25;8.45;;;21.50;97.50;;;;;;6338757;22;19995;-74
2023/09/18 07:08:22;;;;;;;15.05;8.52;;;21.60;97.50;;;;;;6338631;22;20010;-74
2023/09/18 07:10:50;;;;;;;11.77;8.52;;;21.60;97.50;;;;;;6337483;22;19995;-73
2023/09/18 07:13:16;;;;;;;11.75;8.02;;;21.60;97.50;;;;;;6338310;22;20337;-74
2023/09/18 07:15:42;;;;;;;10.65;7.60;;;21.60;97.30;;;;;;6338803;22;19999;-73
2023/09/18 07:18:09;;;;;;;12.98;7.97;;;21.60;97.20;;;;;;6338085;22;20047;-73
2023/09/18 07:20:35;;;;;;;13.52;8.15;;;21.60;97.10;;;;;;6338730;22;20021;-73
2023/09/18 07:23:01;;;;;;;12.50;7.82;;;21.70;97.00;;;;;;6310912;22;20010;-73
2023/09/18 07:25:27;;;;;;;15.15;8.70;;;21.70;97.00;;;;;;6338416;22;20456;-74
2023/09/18 07:27:53;;;;;;;17.10;8.48;;;21.70;97.00;;;;;;6338843;22;20006;-74
2023/09/18 07:30:21;;;;;;;13.38;7.78;;;21.70;97.10;;;;;;6338619;22;20034;-74
2023/09/18 07:32:47;;;;;;;16.95;7.63;;;21.70;97.20;;;;;;6338505;22;20002;-74
2023/09/18 07:35:15;;;;;;;19.38;8.15;;;21.70;97.20;;;;;;6338209;22;20026;-73
2023/09/18 07:37:44;;;;;;;10.50;7.80;;;21.70;97.30;;;;;;6337804;22;20337;-74
2023/09/18 07:40:10;;;;;;;15.65;8.15;;;21.70;97.40;;;;;;6338523;22;20006;-74
2023/09/18 07:42:35;;;;;;;12.13;8.30;;;21.70;97.50;;;;;;6338433;22;20005;-75
2023/09/18 07:45:02;;;;;;;11.30;7.60;;;21.80;97.60;;;;;;6338571;22;19999;-78
2023/09/18 07:47:28;;;;;;;17.35;7.95;;;21.80;97.60;;;;;;6338498;22;20478;-79
2023/09/18 07:49:54;;;;;;;15.25;7.70;;;21.80;97.50;;;;;;6338969;22;20078;-81
2023/09/18 07:52:20;;;;;;;11.68;7.43;;;21.80;97.30;;;;;;6338732;22;20007;-81
2023/09/18 07:54:46;;;;;;;17.20;7.57;;;21.90;97.30;;;;;;6336363;22;20014;-82
2023/09/18 07:57:11;;;;;;;12.00;7.82;;;21.90;97.30;;;;;;6335918;22;20009;-83
2023/09/18 07:59:38;;;;;;;13.65;8.15;;;21.90;97.20;;;;;;6336432;22;20294;-82
2023/09/18 08:02:05;;;;;;;19.15;7.88;;;21.90;97.20;;;;;;6336399;22;20413;-83
2023/09/18 08:04:34;;;;;;;15.05;7.93;;;21.90;97.10;;;;;;6335940;22;20299;-83
2023/09/18 08:07:00;;;;;;;10.48;8.40;;;22.00;97.10;;;;;;6336612;22;20018;-82
2023/09/18 08:09:29;;;;;;;11.98;7.72;;;22.00;97.00;;;;;;6337769;22;20703;-83
2023/09/18 08:11:55;;;;;;;11.57;7.70;;;22.00;96.90;;;;;;6337082;22;20014;-82
2023/09/18 08:14:26;;;;;;;14.82;7.10;;;22.00;96.90;;;;;;6336190;22;20424;-82
2023/09/18 08:16:59;;;;;;;14.10;8.35;;;22.10;96.90;;;;;;6336488;22;20013;-83
2023/09/18 08:19:28;;;;;;;19.33;7.55;;;22.10;96.80;;;;;;6336037;22;20003;-82
2023/09/18 08:21:55;;;;;;;12.18;7.35;;;22.10;96.70;;;;;;6335839;22;20066;-79
2023/09/18 08:24:22;;;;;;;11.90;7.55;;;22.10;96.70;;;;;;6335837;22;20009;-82
2023/09/18 08:26:48;;;;;;;17.50;8.20;;;22.10;96.70;;;;;;6336024;22;20426;-82
2023/09/18 08:29:15;;;;;;;12.15;7.25;;;22.20;96.70;;;;;;6338416;22;20006;-80
2023/09/18 08:31:41;;;;;;;12.07;6.78;;;22.20;96.70;;;;;;6338446;22;20005;-80
2023/09/18 08:34:07;;;;;;;13.60;6.40;;;22.20;96.60;;;;;;6338584;22;20365;-81
2023/09/18 08:36:33;;;;;;;9.18;6.32;;;22.20;96.50;;;;;;6338074;22;20425;-81
2023/09/18 08:38:58;;;;;;;11.82;5.78;;;22.20;96.40;;;;;;6338461;22;20003;-81
2023/09/18 08:41:29;;;;;;;9.75;5.55;;;22.20;96.30;;;;;;6338241;22;20045;-82
2023/09/18 08:44:03;;;;;;;12.27;5.68;;;22.20;96.10;;;;;;6338661;22;20006;-81
2023/09/18 08:46:30;;;;;;;10.13;6.05;;;22.30;96.10;;;;;;6338818;22;20002;-81
2023/09/18 08:48:57;;;;;;;12.50;6.10;;;22.20;96.10;;;;;;6338646;22;20041;-81
2023/09/18 08:51:23;;;;;;;10.05;6.00;;;22.30;96.20;;;;;;6338683;22;19999;-82
2023/09/18 08:53:50;;;;;;;9.73;5.90;;;22.30;96.30;;;;;;6338514;22;20432;-81
2023/09/18 08:56:17;;;;;;;10.65;5.75;;;22.20;96.30;;;;;;6338944;22;19999;-82
2023/09/18 08:58:44;;;;;;;8.25;5.95;;;22.30;96.30;;;;;;6338191;22;20014;-82
2023/09/18 09:01:10;;;;;;;12.85;5.97;;;22.30;96.30;;;;;;6338536;22;19999;-81
2023/09/18 09:03:40;;;;;;;10.85;6.13;;;22.30;96.30;;;;;;6338345;22;20006;-82
2023/09/18 09:06:08;;;;;;;10.20;6.55;;;22.20;96.30;;;;;;6338400;22;20357;-81
2023/09/18 09:08:34;;;;;;;10.48;6.45;;;22.30;96.30;;;;;;6338420;22;20056;-81
2023/09/18 09:11:00;;;;;;;8.95;6.00;;;22.30;96.30;;;;;;6338464;22;20007;-81
2023/09/18 09:13:26;;;;;;;7.72;5.78;;;22.40;96.20;;;;;;6338390;22;20033;-81
2023/09/18 09:15:57;;;;;;;13.02;5.53;;;22.40;96.10;;;;;;6338378;22;20029;-81
2023/09/18 09:18:28;;;;;;;12.90;9.20;;;22.40;96.00;;;;;;6338213;22;20332;-82
2023/09/18 09:21:00;;;;;;;13.23;8.00;;;22.50;95.90;;;;;;6310684;22;20007;-82
2023/09/18 09:23:27;;;;;;;14.18;7.55;;;22.50;95.80;;;;;;6338437;22;20433;-82
2023/09/18 09:25:54;;;;;;;11.30;7.03;;;22.50;95.90;;;;;;6338245;22;20002;-82
2023/09/18 09:28:30;;;;;;;10.40;6.38;;;22.60;95.90;;;;;;6338083;22;20002;-81
2023/09/18 09:31:03;;;;;;;11.82;6.20;;;22.60;95.90;;;;;;6337994;22;20031;-81
2023/09/18 09:33:30;;;;;;;9.02;6.85;;;22.60;95.80;;;;;;6338939;22;20371;-79
2023/09/18 09:35:56;;;;;;;11.18;6.28;;;22.70;95.70;;;;;;6340165;22;19995;-82
2023/09/18 09:38:31;;;;;;;12.93;5.68;;;22.70;95.50;;;;;;6339780;22;20014;-81
2023/09/18 09:40:59;;;;;;;6.93;5.00;;;22.80;95.50;;;;;;6339951;22;20031;-80
2023/09/18 09:43:26;;;;;;;7.63;4.72;;;22.80;95.40;;;;;;6339816;22;19999;-81
2023/09/18 09:45:58;;;;;;;11.43;5.10;;;22.80;95.40;;;;;;6339942;22;20329;-81
2023/09/18 09:48:27;;;;;;;6.18;4.70;;;22.80;95.40;;;;;;6339739;22;20566;-82
2023/09/18 09:51:00;;;;;;;8.85;4.90;;;22.90;95.60;;;;;;6339752;22;19999;-81
2023/09/18 09:53:48;;;;;;;5.28;4.68;;;22.80;95.60;;;;;;6339768;22;20009;-81
2023/09/18 09:56:15;;;;;;;6.95;4.97;;;22.90;95.70;;;;;;6339752;22;19999;-82
2023/09/18 09:58:43;;;;;;;9.88;5.53;;;22.90;95.60;;;;;;6339404;22;20002;-82
2023/09/18 10:01:17;;;;;;;9.48;5.10;;;22.90;95.60;;;;;;6339651;22;20026;-81
2023/09/18 10:03:44;;;;;;;7.45;4.85;;;22.90;95.70;;;;;;6340458;22;20002;-81
2023/09/18 10:06:13;;;;;;;6.10;4.97;;;22.90;95.80;;;;;;6339828;22;19995;-81
2023/09/18 10:08:40;;;;;;;8.43;4.88;;;22.90;95.90;;;;;;6340171;22;19999;-80
2023/09/18 10:11:10;;;;;;;10.52;4.88;;;23.00;95.90;;;;;;6311565;22;20425;-77
2023/09/18 10:13:39;;;;;;;12.00;5.25;;;23.00;95.90;;;;;;6339762;22;20040;-81
2023/09/18 10:16:06;;;;;;;5.40;4.30;;;23.00;95.90;;;;;;6339618;22;20006;-81
2023/09/18 10:18:52;;;;;;;5.93;4.38;;;23.00;95.80;;;;;;6339627;22;20059;-81
2023/09/18 10:21:24;;;;;;;5.63;4.68;;;23.00;95.80;;;;;;6339685;22;20355;-81
2023/09/18 10:24:18;;;;;;;7.50;4.57;;;23.00;95.70;;;;;;6339401;22;20002;-81
2023/09/18 10:27:05;;;;;;;9.10;4.82;;;23.00;95.80;;;;;;6339312;22;20003;-79
2023/09/18 10:29:34;;;;;;;9.90;4.78;;;23.10;95.80;;;;;;6311942;22;20006;-81
2023/09/18 10:32:04;;;;;;;5.35;4.63;;;23.00;95.70;;;;;;6339390;22;20006;-81
2023/09/18 10:34:32;;;;;;;10.45;4.97;;;23.10;95.70;;;;;;6339295;22;20002;-81
2023/09/18 10:37:00;;;;;;;9.35;5.38;;;23.10;95.80;;;;;;6339402;22;20077;-81
2023/09/18 10:39:28;;;;;;;7.28;4.97;;;23.10;95.90;;;;;;6339447;22;19999;-81
2023/09/18 10:41:56;;;;;;;7.53;5.50;;;23.10;95.90;;;;;;6339590;22;20005;-81
2023/09/18 10:44:23;;;;;;;8.80;5.13;;;23.20;95.90;;;;;;6339550;22;20029;-81
2023/09/18 10:46:55;;;;;;;9.32;5.63;;;23.20;95.80;;;;;;6339142;22;20005;-81
2023/09/18 10:49:21;;;;;;;;;;;23.30;95.80;;;;;;6339262;22;20081;-82
2023/09/18 10:51:48;;;;;;;10.02;5.78;;;23.30;95.70;;;;;;6338827;22;19899;-81
2023/09/18 10:54:23;;;;;;;8.85;5.22;;;23.30;95.50;;;;;;6338812;22;20005;-80
2023/09/18 10:56:49;;;;;;;8.95;5.70;;;23.30;95.50;;;;;;6339014;22;20002;-80
2023/09/18 10:59:16;;;;;;;9.23;5.47;;;23.30;95.60;;;;;;6339204;22;20003;-80
2023/09/18 11:01:42;;;;;;;8.52;5.50;;;23.30;95.60;;;;;;6338838;22;20003;-78
2023/09/18 11:04:10;;;;;;;7.82;5.93;;;23.30;95.60;;;;;;6338876;22;19995;-78
2023/09/18 11:06:53;;;;;;;6.55;5.40;;;23.30;95.50;;;;;;6341541;22;20007;-77
2023/09/18 11:09:33;;;;;;;11.18;5.90;;;23.30;95.60;;;;;;6312507;22;20009;-77
2023/09/18 11:12:02;;;;;;;10.25;6.00;;;23.30;95.70;;;;;;6339007;22;20049;-79
2023/09/18 11:14:52;;;;;;;10.98;5.65;;;23.30;95.80;;;;;;6339032;22;20085;-77
2023/09/18 11:17:36;;;;;;;9.35;5.88;;;23.20;95.90;;;;;;6338845;22;20006;-76
2023/09/18 11:20:24;;;;;;;10.65;6.43;;;23.30;95.90;;;;;;6338127;22;20081;-77
2023/09/18 11:23:13;;;;;;;7.85;5.30;;;23.20;96.00;;;;;;6338753;22;20006;-77
2023/09/18 11:25:41;;;;;;;10.75;6.22;;;23.20;95.90;;;;;;6338829;22;20006;-76
2023/09/18 11:28:12;;;;;;;16.20;6.57;;;23.30;96.00;;;;;;6339034;22;20003;-77
2023/09/18 11:30:47;;;;;;;20.55;7.75;;;23.20;96.20;;;;;;6338685;22;20006;-76
2023/09/18 11:33:13;;;;;;;15.10;6.85;;;23.30;96.30;;;;;;6338945;22;20071;-78
2023/09/18 11:35:52;;;;;;;25.25;6.90;;;23.30;96.40;;;;;;6311655;22;20002;-75
2023/09/18 11:38:18;;;;;;;13.95;6.60;;;23.30;96.50;;;;;;6338996;22;20010;-78
2023/09/18 11:40:45;;;;;;;16.23;6.38;;;23.30;96.60;;;;;;6338424;22;20371;-75
2023/09/18 11:43:31;;;;;;;9.43;6.22;;;23.30;96.50;;;;;;6339069;22;20007;-77
2023/09/18 11:46:04;;;;;;;11.80;6.25;;;23.30;96.40;;;;;;6338212;22;20026;-77
2023/09/18 11:48:33;;;;;;;20.33;7.22;;;23.30;96.40;;;;;;6338718;22;19998;-77
2023/09/18 11:51:03;;;;;;;17.92;6.47;;;23.30;96.40;;;;;;6338889;22;20011;-78
2023/09/18 11:53:29;;;;;;;17.15;6.32;;;23.30;96.30;;;;;;6338540;22;20056;-77
2023/09/18 11:55:55;;;;;;;25.80;7.18;;;23.20;96.30;;;;;;6337990;22;20496;-78
2023/09/18 11:58:23;;;;;;;12.98;6.95;;;23.20;96.40;;;;;;6338333;22;20034;-78
2023/09/18 12:00:50;;;;;;;17.67;6.63;;;23.20;96.40;;;;;;6338544;22;20080;-77
2023/09/18 12:03:17;;;;;;;17.63;6.50;;;23.20;96.30;;;;;;6338271;22;19998;-78
2023/09/18 12:05:44;;;;;;;19.67;6.65;;;23.20;96.40;;;;;;6338646;22;19995;-79
2023/09/18 12:08:12;;;;;;;11.85;6.32;;;23.20;96.40;;;;;;6338024;22;20009;-79
2023/09/18 12:10:38;;;;;;;14.88;7.70;;;23.20;96.50;;;;;;6337997;22;20003;-78
2023/09/18 12:13:08;;;;;;;13.07;6.40;;;23.20;96.50;;;;;;6337702;22;20015;-78
2023/09/18 12:15:34;;;;;;;14.38;6.20;;;23.20;96.50;;;;;;6338505;22;20011;-79
2023/09/18 12:18:07;;;;;;;14.50;7.32;;;23.20;96.40;;;;;;6337073;22;20048;-78
2023/09/18 12:20:34;;;;;;;10.07;5.72;;;23.20;96.40;;;;;;6310032;22;20019;-78
2023/09/18 12:23:00;;;;;;;15.00;7.03;;;23.20;96.30;;;;;;6338017;22;20006;-78
2023/09/18 12:25:26;;;;;;;13.93;6.53;;;23.30;96.40;;;;;;6337343;22;20026;-79
2023/09/18 12:27:56;;;;;;;15.48;6.13;;;23.30;96.30;;;;;;6338477;22;20014;-79
2023/09/18 12:30:22;;;;;;;17.98;6.85;;;23.30;96.30;;;;;;6336772;22;20043;-79
2023/09/18 12:32:52;;;;;;;14.23;6.85;;;23.30;96.30;;;;;;6337889;22;20424;-79
2023/09/18 12:35:18;;;;;;;11.27;6.40;;;23.30;96.20;;;;;;6310210;22;20006;-79
2023/09/18 12:37:44;;;;;;;10.10;6.20;;;23.40;96.30;;;;;;6337894;22;20437;-79
2023/09/18 12:40:27;;;;;;;10.43;5.90;;;23.40;96.30;;;;;;6338314;22;19999;-79
2023/09/18 12:43:01;;;;;;;9.52;5.78;;;23.40;96.20;;;;;;6338249;22;20081;-79
2023/09/18 12:45:29;;;;;;;11.15;6.75;;;23.40;96.20;;;;;;6338118;22;20023;-78